Villanueva de la Canada, Spain
Current Conditions -  °F | °C
As of 1:00 PM on Monday 24 Nov 2014 (Local Time) from LEVS Reporting Station
Clear Clear  
Wind Chill: 68°   Ceiling: Unl
Heat Index: 68°   Visibility: 6mi
Dew Point: 48°   Wind: 0mph
Humidity: 49%   Direction: NA
Pressure: 30.06"   Gusts: NA
Location:  40.45°N, 4°W
Report Text: LEVS 241200Z 00000KT CAVOK 20/09 Q1018
Loading
Personal Weather Stations






























Interactive Weather Map New forecast layout! Learn more

10-Day Weather Forecast

Advertisements
Track Severe Weather on mobile